sensor_id;sensor_type;location;lat;lon;timestamp;P1;durP1;ratioP1;P2;durP2;ratioP2
19519;SDS011;9904;52.246;20.898;2022-07-29T00:02:26;8.40;;;3.23;;
19519;SDS011;9904;52.246;20.898;2022-07-29T00:04:53;19.87;;;3.70;;
19519;SDS011;9904;52.246;20.898;2022-07-29T00:07:20;10.07;;;3.33;;
19519;SDS011;9904;52.246;20.898;2022-07-29T00:09:47;10.63;;;3.30;;
19519;SDS011;9904;52.246;20.898;2022-07-29T00:12:18;11.47;;;4.00;;
19519;SDS011;9904;52.246;20.898;2022-07-29T00:14:52;11.10;;;3.40;;
19519;SDS011;9904;52.246;20.898;2022-07-29T00:17:19;11.73;;;2.90;;
19519;SDS011;9904;52.246;20.898;2022-07-29T00:19:46;6.77;;;3.00;;
19519;SDS011;9904;52.246;20.898;2022-07-29T00:22:12;9.97;;;3.10;;
19519;SDS011;9904;52.246;20.898;2022-07-29T00:24:39;10.47;;;3.40;;
19519;SDS011;9904;52.246;20.898;2022-07-29T00:27:05;8.70;;;3.30;;
19519;SDS011;9904;52.246;20.898;2022-07-29T00:29:32;9.10;;;3.50;;
19519;SDS011;9904;52.246;20.898;2022-07-29T00:32:00;9.87;;;3.43;;
19519;SDS011;9904;52.246;20.898;2022-07-29T00:34:27;10.23;;;3.07;;
19519;SDS011;9904;52.246;20.898;2022-07-29T00:37:12;6.40;;;3.10;;
19519;SDS011;9904;52.246;20.898;2022-07-29T00:39:39;9.80;;;2.93;;
19519;SDS011;9904;52.246;20.898;2022-07-29T00:42:06;11.80;;;3.07;;
19519;SDS011;9904;52.246;20.898;2022-07-29T00:44:39;6.33;;;2.63;;
19519;SDS011;9904;52.246;20.898;2022-07-29T00:47:06;9.00;;;3.33;;
19519;SDS011;9904;52.246;20.898;2022-07-29T00:49:34;16.97;;;3.83;;
19519;SDS011;9904;52.246;20.898;2022-07-29T00:52:01;8.77;;;2.80;;
19519;SDS011;9904;52.246;20.898;2022-07-29T00:54:29;9.27;;;2.83;;
19519;SDS011;9904;52.246;20.898;2022-07-29T00:56:57;4.37;;;2.40;;
19519;SDS011;9904;52.246;20.898;2022-07-29T00:59:25;8.70;;;2.37;;
19519;SDS011;9904;52.246;20.898;2022-07-29T01:02:00;8.27;;;2.70;;
19519;SDS011;9904;52.246;20.898;2022-07-29T01:04:28;6.53;;;2.60;;
19519;SDS011;9904;52.246;20.898;2022-07-29T01:06:55;7.00;;;2.70;;
19519;SDS011;9904;52.246;20.898;2022-07-29T01:09:22;8.70;;;2.53;;
19519;SDS011;9904;52.246;20.898;2022-07-29T01:12:10;8.57;;;2.63;;
19519;SDS011;9904;52.246;20.898;2022-07-29T01:14:36;5.97;;;2.63;;
19519;SDS011;9904;52.246;20.898;2022-07-29T01:17:06;8.03;;;3.03;;
19519;SDS011;9904;52.246;20.898;2022-07-29T01:22:25;10.50;;;2.93;;
19519;SDS011;9904;52.246;20.898;2022-07-29T01:25:00;6.47;;;3.00;;
19519;SDS011;9904;52.246;20.898;2022-07-29T01:28:15;6.97;;;2.47;;
19519;SDS011;9904;52.246;20.898;2022-07-29T01:30:36;7.93;;;3.20;;
19519;SDS011;9904;52.246;20.898;2022-07-29T01:33:06;5.77;;;2.53;;
19519;SDS011;9904;52.246;20.898;2022-07-29T01:35:39;7.30;;;2.80;;
19519;SDS011;9904;52.246;20.898;2022-07-29T01:38:22;7.37;;;2.53;;
19519;SDS011;9904;52.246;20.898;2022-07-29T01:40:52;6.40;;;2.70;;
19519;SDS011;9904;52.246;20.898;2022-07-29T01:43:27;6.17;;;2.30;;
19519;SDS011;9904;52.246;20.898;2022-07-29T01:46:00;7.03;;;2.30;;
19519;SDS011;9904;52.246;20.898;2022-07-29T01:48:31;4.10;;;2.30;;
19519;SDS011;9904;52.246;20.898;2022-07-29T01:54:04;9.10;;;2.50;;
19519;SDS011;9904;52.246;20.898;2022-07-29T01:56:35;6.17;;;2.77;;
19519;SDS011;9904;52.246;20.898;2022-07-29T01:59:03;5.17;;;2.10;;
19519;SDS011;9904;52.246;20.898;2022-07-29T02:01:31;5.60;;;2.33;;
19519;SDS011;9904;52.246;20.898;2022-07-29T02:03:59;6.27;;;2.17;;
19519;SDS011;9904;52.246;20.898;2022-07-29T02:06:29;12.90;;;3.03;;
19519;SDS011;9904;52.246;20.898;2022-07-29T02:08:58;9.87;;;2.70;;
19519;SDS011;9904;52.246;20.898;2022-07-29T02:11:25;4.47;;;2.07;;
19519;SDS011;9904;52.246;20.898;2022-07-29T02:13:52;11.33;;;2.60;;
19519;SDS011;9904;52.246;20.898;2022-07-29T02:16:20;4.97;;;2.23;;
19519;SDS011;9904;52.246;20.898;2022-07-29T02:18:48;10.00;;;2.43;;
19519;SDS011;9904;52.246;20.898;2022-07-29T02:21:19;6.60;;;2.50;;
19519;SDS011;9904;52.246;20.898;2022-07-29T02:23:47;5.40;;;2.23;;
19519;SDS011;9904;52.246;20.898;2022-07-29T02:26:17;7.37;;;2.57;;
19519;SDS011;9904;52.246;20.898;2022-07-29T02:28:44;12.23;;;2.53;;
19519;SDS011;9904;52.246;20.898;2022-07-29T02:31:11;7.40;;;2.17;;
19519;SDS011;9904;52.246;20.898;2022-07-29T02:33:38;6.13;;;2.50;;
19519;SDS011;9904;52.246;20.898;2022-07-29T02:36:07;9.50;;;2.50;;
19519;SDS011;9904;52.246;20.898;2022-07-29T02:38:33;6.03;;;2.43;;
19519;SDS011;9904;52.246;20.898;2022-07-29T02:41:23;6.07;;;2.17;;
19519;SDS011;9904;52.246;20.898;2022-07-29T02:43:57;4.20;;;2.03;;
19519;SDS011;9904;52.246;20.898;2022-07-29T02:46:31;8.70;;;2.20;;
19519;SDS011;9904;52.246;20.898;2022-07-29T02:49:10;5.50;;;2.17;;
19519;SDS011;9904;52.246;20.898;2022-07-29T02:51:46;7.00;;;2.30;;
19519;SDS011;9904;52.246;20.898;2022-07-29T02:54:26;5.47;;;2.50;;
19519;SDS011;9904;52.246;20.898;2022-07-29T02:56:59;7.07;;;2.30;;
19519;SDS011;9904;52.246;20.898;2022-07-29T02:59:27;5.93;;;2.20;;
19519;SDS011;9904;52.246;20.898;2022-07-29T03:01:57;3.53;;;1.80;;
19519;SDS011;9904;52.246;20.898;2022-07-29T03:04:25;6.73;;;2.07;;
19519;SDS011;9904;52.246;20.898;2022-07-29T03:06:55;9.90;;;2.10;;
19519;SDS011;9904;52.246;20.898;2022-07-29T03:09:25;8.17;;;2.40;;
19519;SDS011;9904;52.246;20.898;2022-07-29T03:11:52;8.63;;;2.47;;
19519;SDS011;9904;52.246;20.898;2022-07-29T03:14:20;6.50;;;1.83;;
19519;SDS011;9904;52.246;20.898;2022-07-29T03:16:49;4.27;;;1.83;;
19519;SDS011;9904;52.246;20.898;2022-07-29T03:19:17;4.20;;;1.83;;
19519;SDS011;9904;52.246;20.898;2022-07-29T03:21:44;4.83;;;2.07;;
19519;SDS011;9904;52.246;20.898;2022-07-29T03:24:23;5.77;;;1.90;;
19519;SDS011;9904;52.246;20.898;2022-07-29T03:27:00;5.80;;;1.90;;
19519;SDS011;9904;52.246;20.898;2022-07-29T03:29:27;5.70;;;2.03;;
19519;SDS011;9904;52.246;20.898;2022-07-29T03:31:59;3.77;;;1.90;;
19519;SDS011;9904;52.246;20.898;2022-07-29T03:34:28;5.07;;;1.70;;
19519;SDS011;9904;52.246;20.898;2022-07-29T03:36:55;7.43;;;1.73;;
19519;SDS011;9904;52.246;20.898;2022-07-29T03:39:23;5.73;;;1.73;;
19519;SDS011;9904;52.246;20.898;2022-07-29T03:41:55;3.30;;;1.70;;
19519;SDS011;9904;52.246;20.898;2022-07-29T03:44:22;4.63;;;1.67;;
19519;SDS011;9904;52.246;20.898;2022-07-29T03:46:50;5.13;;;1.90;;
19519;SDS011;9904;52.246;20.898;2022-07-29T03:49:18;4.80;;;1.80;;
19519;SDS011;9904;52.246;20.898;2022-07-29T03:51:45;6.37;;;1.83;;
19519;SDS011;9904;52.246;20.898;2022-07-29T03:54:12;9.23;;;2.30;;
19519;SDS011;9904;52.246;20.898;2022-07-29T03:56:42;6.03;;;1.97;;
19519;SDS011;9904;52.246;20.898;2022-07-29T03:59:14;3.27;;;2.00;;
19519;SDS011;9904;52.246;20.898;2022-07-29T04:01:41;3.90;;;1.90;;
19519;SDS011;9904;52.246;20.898;2022-07-29T04:04:09;4.83;;;2.07;;
19519;SDS011;9904;52.246;20.898;2022-07-29T04:06:41;5.80;;;1.80;;
19519;SDS011;9904;52.246;20.898;2022-07-29T04:09:10;5.47;;;2.13;;
19519;SDS011;9904;52.246;20.898;2022-07-29T04:11:38;4.77;;;1.83;;
19519;SDS011;9904;52.246;20.898;2022-07-29T04:14:25;3.60;;;1.80;;
19519;SDS011;9904;52.246;20.898;2022-07-29T04:16:52;3.30;;;1.93;;
19519;SDS011;9904;52.246;20.898;2022-07-29T04:19:19;4.60;;;1.80;;
19519;SDS011;9904;52.246;20.898;2022-07-29T04:21:45;4.93;;;2.23;;
19519;SDS011;9904;52.246;20.898;2022-07-29T04:24:12;4.20;;;2.27;;
19519;SDS011;9904;52.246;20.898;2022-07-29T04:26:40;3.20;;;1.90;;
19519;SDS011;9904;52.246;20.898;2022-07-29T04:29:06;6.87;;;1.70;;
19519;SDS011;9904;52.246;20.898;2022-07-29T04:31:33;4.93;;;1.57;;
19519;SDS011;9904;52.246;20.898;2022-07-29T04:34:00;5.40;;;1.50;;
19519;SDS011;9904;52.246;20.898;2022-07-29T04:36:26;3.97;;;1.50;;
19519;SDS011;9904;52.246;20.898;2022-07-29T04:38:54;5.93;;;1.80;;
19519;SDS011;9904;52.246;20.898;2022-07-29T04:41:21;6.27;;;1.57;;
19519;SDS011;9904;52.246;20.898;2022-07-29T04:43:48;7.13;;;1.80;;
19519;SDS011;9904;52.246;20.898;2022-07-29T04:46:15;3.27;;;1.47;;
19519;SDS011;9904;52.246;20.898;2022-07-29T04:48:41;4.13;;;1.60;;
19519;SDS011;9904;52.246;20.898;2022-07-29T04:51:08;2.70;;;1.60;;
19519;SDS011;9904;52.246;20.898;2022-07-29T04:53:35;4.53;;;1.67;;
19519;SDS011;9904;52.246;20.898;2022-07-29T04:56:01;4.57;;;1.67;;
19519;SDS011;9904;52.246;20.898;2022-07-29T04:58:29;6.90;;;1.63;;
19519;SDS011;9904;52.246;20.898;2022-07-29T05:00:55;2.87;;;1.30;;
19519;SDS011;9904;52.246;20.898;2022-07-29T05:03:22;3.70;;;1.40;;
19519;SDS011;9904;52.246;20.898;2022-07-29T05:05:48;10.13;;;1.77;;
19519;SDS011;9904;52.246;20.898;2022-07-29T05:08:15;3.80;;;1.30;;
19519;SDS011;9904;52.246;20.898;2022-07-29T05:10:42;2.97;;;1.43;;
19519;SDS011;9904;52.246;20.898;2022-07-29T05:13:08;6.27;;;1.60;;
19519;SDS011;9904;52.246;20.898;2022-07-29T05:15:35;5.67;;;1.40;;
19519;SDS011;9904;52.246;20.898;2022-07-29T05:18:03;5.20;;;1.17;;
19519;SDS011;9904;52.246;20.898;2022-07-29T05:20:30;17.27;;;2.40;;
19519;SDS011;9904;52.246;20.898;2022-07-29T05:23:00;5.67;;;1.20;;
19519;SDS011;9904;52.246;20.898;2022-07-29T05:25:30;3.37;;;1.40;;
19519;SDS011;9904;52.246;20.898;2022-07-29T05:28:10;3.50;;;1.57;;
19519;SDS011;9904;52.246;20.898;2022-07-29T05:30:37;5.40;;;1.17;;
19519;SDS011;9904;52.246;20.898;2022-07-29T05:33:04;8.73;;;1.50;;
19519;SDS011;9904;52.246;20.898;2022-07-29T05:35:31;7.10;;;1.20;;
19519;SDS011;9904;52.246;20.898;2022-07-29T05:37:57;4.93;;;1.17;;
19519;SDS011;9904;52.246;20.898;2022-07-29T05:40:24;4.53;;;1.23;;
19519;SDS011;9904;52.246;20.898;2022-07-29T05:42:50;8.67;;;1.40;;
19519;SDS011;9904;52.246;20.898;2022-07-29T05:45:17;1.80;;;1.03;;
19519;SDS011;9904;52.246;20.898;2022-07-29T05:47:44;5.83;;;1.43;;
19519;SDS011;9904;52.246;20.898;2022-07-29T05:50:11;4.40;;;1.50;;
19519;SDS011;9904;52.246;20.898;2022-07-29T05:52:38;1.53;;;1.07;;
19519;SDS011;9904;52.246;20.898;2022-07-29T05:55:05;5.33;;;1.10;;
19519;SDS011;9904;52.246;20.898;2022-07-29T05:57:32;4.83;;;1.30;;
19519;SDS011;9904;52.246;20.898;2022-07-29T05:59:58;5.33;;;1.10;;
19519;SDS011;9904;52.246;20.898;2022-07-29T06:02:25;7.40;;;1.27;;
19519;SDS011;9904;52.246;20.898;2022-07-29T06:04:52;8.83;;;1.40;;
19519;SDS011;9904;52.246;20.898;2022-07-29T06:07:18;5.40;;;1.47;;
19519;SDS011;9904;52.246;20.898;2022-07-29T06:09:45;2.47;;;1.07;;
19519;SDS011;9904;52.246;20.898;2022-07-29T06:12:12;2.93;;;1.10;;
19519;SDS011;9904;52.246;20.898;2022-07-29T06:14:39;1.97;;;1.03;;
19519;SDS011;9904;52.246;20.898;2022-07-29T06:17:06;3.57;;;1.27;;
19519;SDS011;9904;52.246;20.898;2022-07-29T06:19:35;6.57;;;1.10;;
19519;SDS011;9904;52.246;20.898;2022-07-29T06:22:03;5.50;;;1.10;;
19519;SDS011;9904;52.246;20.898;2022-07-29T06:24:29;4.47;;;1.00;;
19519;SDS011;9904;52.246;20.898;2022-07-29T06:26:56;2.37;;;1.07;;
19519;SDS011;9904;52.246;20.898;2022-07-29T06:29:23;6.13;;;1.17;;
19519;SDS011;9904;52.246;20.898;2022-07-29T06:31:50;2.87;;;0.90;;
19519;SDS011;9904;52.246;20.898;2022-07-29T06:34:16;4.93;;;1.57;;
19519;SDS011;9904;52.246;20.898;2022-07-29T06:36:44;3.37;;;1.13;;
19519;SDS011;9904;52.246;20.898;2022-07-29T06:39:11;4.57;;;1.60;;
19519;SDS011;9904;52.246;20.898;2022-07-29T06:41:38;5.30;;;1.20;;
19519;SDS011;9904;52.246;20.898;2022-07-29T06:44:04;5.67;;;0.93;;
19519;SDS011;9904;52.246;20.898;2022-07-29T06:46:31;5.47;;;1.20;;
19519;SDS011;9904;52.246;20.898;2022-07-29T06:48:58;4.20;;;1.20;;
19519;SDS011;9904;52.246;20.898;2022-07-29T06:51:28;4.13;;;1.17;;
19519;SDS011;9904;52.246;20.898;2022-07-29T06:53:55;7.17;;;1.00;;
19519;SDS011;9904;52.246;20.898;2022-07-29T06:56:32;6.07;;;1.17;;
19519;SDS011;9904;52.246;20.898;2022-07-29T06:59:05;4.37;;;1.20;;
19519;SDS011;9904;52.246;20.898;2022-07-29T07:01:36;4.73;;;1.40;;
19519;SDS011;9904;52.246;20.898;2022-07-29T07:04:03;4.87;;;1.40;;
19519;SDS011;9904;52.246;20.898;2022-07-29T07:06:30;3.00;;;1.00;;
19519;SDS011;9904;52.246;20.898;2022-07-29T07:08:57;4.07;;;1.20;;
19519;SDS011;9904;52.246;20.898;2022-07-29T07:11:23;5.40;;;1.17;;
19519;SDS011;9904;52.246;20.898;2022-07-29T07:13:50;2.57;;;0.93;;
19519;SDS011;9904;52.246;20.898;2022-07-29T07:16:16;4.20;;;1.30;;
19519;SDS011;9904;52.246;20.898;2022-07-29T07:18:43;4.33;;;1.20;;
19519;SDS011;9904;52.246;20.898;2022-07-29T07:21:11;4.05;;;1.30;;
19519;SDS011;9904;52.246;20.898;2022-07-29T07:23:44;6.40;;;1.20;;
19519;SDS011;9904;52.246;20.898;2022-07-29T07:26:11;8.52;;;1.50;;
19519;SDS011;9904;52.246;20.898;2022-07-29T07:28:37;4.63;;;1.15;;
19519;SDS011;9904;52.246;20.898;2022-07-29T07:31:04;3.13;;;0.90;;
19519;SDS011;9904;52.246;20.898;2022-07-29T07:33:31;4.25;;;1.00;;
19519;SDS011;9904;52.246;20.898;2022-07-29T07:35:57;4.90;;;1.35;;
19519;SDS011;9904;52.246;20.898;2022-07-29T07:38:24;4.40;;;1.40;;
19519;SDS011;9904;52.246;20.898;2022-07-29T07:40:51;6.93;;;1.27;;
19519;SDS011;9904;52.246;20.898;2022-07-29T07:43:17;3.33;;;1.20;;
19519;SDS011;9904;52.246;20.898;2022-07-29T07:45:44;4.28;;;1.13;;
19519;SDS011;9904;52.246;20.898;2022-07-29T07:48:11;6.10;;;1.30;;
19519;SDS011;9904;52.246;20.898;2022-07-29T07:50:37;4.80;;;1.35;;
19519;SDS011;9904;52.246;20.898;2022-07-29T07:53:04;6.65;;;1.40;;
19519;SDS011;9904;52.246;20.898;2022-07-29T07:55:31;4.95;;;0.93;;
19519;SDS011;9904;52.246;20.898;2022-07-29T07:58:18;6.07;;;1.58;;
19519;SDS011;9904;52.246;20.898;2022-07-29T08:00:44;3.53;;;1.20;;
19519;SDS011;9904;52.246;20.898;2022-07-29T08:03:11;5.90;;;1.13;;
19519;SDS011;9904;52.246;20.898;2022-07-29T08:05:42;7.95;;;1.10;;
19519;SDS011;9904;52.246;20.898;2022-07-29T08:08:09;4.90;;;1.50;;
19519;SDS011;9904;52.246;20.898;2022-07-29T08:10:36;5.90;;;1.40;;
19519;SDS011;9904;52.246;20.898;2022-07-29T08:13:28;8.93;;;1.33;;
19519;SDS011;9904;52.246;20.898;2022-07-29T08:15:56;7.07;;;1.17;;
19519;SDS011;9904;52.246;20.898;2022-07-29T08:18:28;5.23;;;1.30;;
19519;SDS011;9904;52.246;20.898;2022-07-29T08:20:56;5.70;;;1.20;;
19519;SDS011;9904;52.246;20.898;2022-07-29T08:23:23;12.77;;;1.53;;
19519;SDS011;9904;52.246;20.898;2022-07-29T08:25:50;4.60;;;1.03;;
19519;SDS011;9904;52.246;20.898;2022-07-29T08:28:20;5.10;;;1.00;;
19519;SDS011;9904;52.246;20.898;2022-07-29T08:30:51;6.13;;;1.10;;
19519;SDS011;9904;52.246;20.898;2022-07-29T08:33:18;7.43;;;1.63;;
19519;SDS011;9904;52.246;20.898;2022-07-29T08:35:44;8.57;;;2.03;;
19519;SDS011;9904;52.246;20.898;2022-07-29T08:38:11;4.60;;;1.50;;
19519;SDS011;9904;52.246;20.898;2022-07-29T08:40:39;9.90;;;1.47;;
19519;SDS011;9904;52.246;20.898;2022-07-29T08:43:06;5.50;;;1.13;;
19519;SDS011;9904;52.246;20.898;2022-07-29T08:45:43;5.20;;;1.20;;
19519;SDS011;9904;52.246;20.898;2022-07-29T08:48:14;4.13;;;1.00;;
19519;SDS011;9904;52.246;20.898;2022-07-29T08:50:48;5.63;;;1.30;;
19519;SDS011;9904;52.246;20.898;2022-07-29T08:53:17;5.70;;;1.67;;
19519;SDS011;9904;52.246;20.898;2022-07-29T08:55:45;4.70;;;1.10;;
19519;SDS011;9904;52.246;20.898;2022-07-29T08:58:13;4.47;;;0.90;;
19519;SDS011;9904;52.246;20.898;2022-07-29T09:00:42;7.10;;;2.73;;
19519;SDS011;9904;52.246;20.898;2022-07-29T09:03:14;7.10;;;1.20;;
19519;SDS011;9904;52.246;20.898;2022-07-29T09:05:42;6.73;;;1.37;;
19519;SDS011;9904;52.246;20.898;2022-07-29T09:08:13;2.30;;;1.20;;
19519;SDS011;9904;52.246;20.898;2022-07-29T09:10:41;3.37;;;1.10;;
19519;SDS011;9904;52.246;20.898;2022-07-29T09:13:08;7.03;;;1.10;;
19519;SDS011;9904;52.246;20.898;2022-07-29T09:15:34;5.40;;;1.33;;
19519;SDS011;9904;52.246;20.898;2022-07-29T09:18:01;5.43;;;0.90;;
19519;SDS011;9904;52.246;20.898;2022-07-29T09:20:29;5.50;;;1.20;;
19519;SDS011;9904;52.246;20.898;2022-07-29T09:23:15;2.13;;;0.90;;
19519;SDS011;9904;52.246;20.898;2022-07-29T09:25:49;7.70;;;1.20;;
19519;SDS011;9904;52.246;20.898;2022-07-29T09:28:16;9.73;;;1.23;;
19519;SDS011;9904;52.246;20.898;2022-07-29T09:30:55;5.20;;;1.17;;
19519;SDS011;9904;52.246;20.898;2022-07-29T09:33:31;6.27;;;0.90;;
19519;SDS011;9904;52.246;20.898;2022-07-29T09:36:03;7.13;;;1.67;;
19519;SDS011;9904;52.246;20.898;2022-07-29T09:38:31;4.60;;;0.87;;
19519;SDS011;9904;52.246;20.898;2022-07-29T09:40:59;2.60;;;0.93;;
19519;SDS011;9904;52.246;20.898;2022-07-29T09:43:31;5.77;;;0.90;;
19519;SDS011;9904;52.246;20.898;2022-07-29T09:46:11;4.90;;;1.07;;
19519;SDS011;9904;52.246;20.898;2022-07-29T09:48:39;2.40;;;0.70;;
19519;SDS011;9904;52.246;20.898;2022-07-29T09:51:16;2.50;;;0.83;;
19519;SDS011;9904;52.246;20.898;2022-07-29T09:53:47;2.70;;;0.90;;
19519;SDS011;9904;52.246;20.898;2022-07-29T09:56:14;2.70;;;0.90;;
19519;SDS011;9904;52.246;20.898;2022-07-29T09:58:40;6.23;;;1.00;;
19519;SDS011;9904;52.246;20.898;2022-07-29T10:01:07;3.07;;;0.70;;
19519;SDS011;9904;52.246;20.898;2022-07-29T10:03:49;5.70;;;0.97;;
19519;SDS011;9904;52.246;20.898;2022-07-29T10:06:17;5.23;;;1.00;;
19519;SDS011;9904;52.246;20.898;2022-07-29T10:08:43;6.57;;;0.97;;
19519;SDS011;9904;52.246;20.898;2022-07-29T10:11:12;4.53;;;0.93;;
19519;SDS011;9904;52.246;20.898;2022-07-29T10:13:40;6.27;;;1.37;;
19519;SDS011;9904;52.246;20.898;2022-07-29T10:16:08;5.00;;;1.17;;
19519;SDS011;9904;52.246;20.898;2022-07-29T10:18:35;6.43;;;1.77;;
19519;SDS011;9904;52.246;20.898;2022-07-29T10:21:01;3.43;;;1.10;;
19519;SDS011;9904;52.246;20.898;2022-07-29T10:23:29;5.50;;;1.53;;
19519;SDS011;9904;52.246;20.898;2022-07-29T10:26:12;11.30;;;1.27;;
19519;SDS011;9904;52.246;20.898;2022-07-29T10:28:39;4.90;;;0.93;;
19519;SDS011;9904;52.246;20.898;2022-07-29T10:31:06;3.87;;;1.00;;
19519;SDS011;9904;52.246;20.898;2022-07-29T10:41:33;4.87;;;1.30;;
19519;SDS011;9904;52.246;20.898;2022-07-29T10:44:28;5.77;;;0.77;;
19519;SDS011;9904;52.246;20.898;2022-07-29T10:46:55;4.43;;;1.07;;
19519;SDS011;9904;52.246;20.898;2022-07-29T10:49:23;3.60;;;0.77;;
19519;SDS011;9904;52.246;20.898;2022-07-29T10:52:00;9.03;;;1.10;;
19519;SDS011;9904;52.246;20.898;2022-07-29T10:54:37;3.27;;;0.67;;
19519;SDS011;9904;52.246;20.898;2022-07-29T10:59:43;5.10;;;0.90;;
19519;SDS011;9904;52.246;20.898;2022-07-29T11:05:16;4.13;;;0.87;;
19519;SDS011;9904;52.246;20.898;2022-07-29T11:10:46;3.63;;;1.00;;
19519;SDS011;9904;52.246;20.898;2022-07-29T11:16:08;5.27;;;0.80;;
19519;SDS011;9904;52.246;20.898;2022-07-29T11:18:36;7.83;;;1.10;;
19519;SDS011;9904;52.246;20.898;2022-07-29T11:21:02;1.93;;;0.63;;
19519;SDS011;9904;52.246;20.898;2022-07-29T11:23:34;4.13;;;0.90;;
19519;SDS011;9904;52.246;20.898;2022-07-29T11:28:57;2.93;;;0.70;;
19519;SDS011;9904;52.246;20.898;2022-07-29T11:39:41;1.87;;;1.00;;
19519;SDS011;9904;52.246;20.898;2022-07-29T11:45:05;1.97;;;0.50;;
19519;SDS011;9904;52.246;20.898;2022-07-29T11:47:54;3.23;;;1.10;;
19519;SDS011;9904;52.246;20.898;2022-07-29T11:50:44;3.33;;;0.90;;
19519;SDS011;9904;52.246;20.898;2022-07-29T11:53:13;2.13;;;1.00;;
19519;SDS011;9904;52.246;20.898;2022-07-29T11:55:41;3.23;;;0.97;;
19519;SDS011;9904;52.246;20.898;2022-07-29T11:58:20;5.70;;;0.90;;
19519;SDS011;9904;52.246;20.898;2022-07-29T12:00:51;3.10;;;0.80;;
19519;SDS011;9904;52.246;20.898;2022-07-29T12:03:24;4.67;;;1.00;;
19519;SDS011;9904;52.246;20.898;2022-07-29T12:06:00;4.23;;;0.50;;
19519;SDS011;9904;52.246;20.898;2022-07-29T12:08:27;4.07;;;1.00;;
19519;SDS011;9904;52.246;20.898;2022-07-29T12:10:54;5.60;;;0.70;;
19519;SDS011;9904;52.246;20.898;2022-07-29T12:13:21;4.50;;;0.80;;
19519;SDS011;9904;52.246;20.898;2022-07-29T12:16:03;3.23;;;0.80;;
19519;SDS011;9904;52.246;20.898;2022-07-29T12:18:30;2.67;;;0.70;;
19519;SDS011;9904;52.246;20.898;2022-07-29T12:20:57;3.77;;;0.80;;
19519;SDS011;9904;52.246;20.898;2022-07-29T12:23:29;4.53;;;0.90;;
19519;SDS011;9904;52.246;20.898;2022-07-29T12:26:00;4.43;;;1.20;;
19519;SDS011;9904;52.246;20.898;2022-07-29T12:28:36;3.87;;;1.27;;
19519;SDS011;9904;52.246;20.898;2022-07-29T12:31:04;1.83;;;0.80;;
19519;SDS011;9904;52.246;20.898;2022-07-29T12:33:31;2.20;;;0.77;;
19519;SDS011;9904;52.246;20.898;2022-07-29T12:35:58;3.63;;;0.60;;
19519;SDS011;9904;52.246;20.898;2022-07-29T12:38:33;5.70;;;1.00;;
19519;SDS011;9904;52.246;20.898;2022-07-29T12:41:01;4.43;;;1.00;;
19519;SDS011;9904;52.246;20.898;2022-07-29T12:43:29;3.23;;;0.90;;
19519;SDS011;9904;52.246;20.898;2022-07-29T12:45:56;1.73;;;0.60;;
19519;SDS011;9904;52.246;20.898;2022-07-29T12:48:33;1.43;;;0.63;;
19519;SDS011;9904;52.246;20.898;2022-07-29T12:51:04;3.17;;;0.83;;
19519;SDS011;9904;52.246;20.898;2022-07-29T12:53:32;1.80;;;0.70;;
19519;SDS011;9904;52.246;20.898;2022-07-29T12:56:01;3.23;;;0.87;;
19519;SDS011;9904;52.246;20.898;2022-07-29T12:58:52;1.67;;;0.60;;
19519;SDS011;9904;52.246;20.898;2022-07-29T13:01:19;1.50;;;0.50;;
19519;SDS011;9904;52.246;20.898;2022-07-29T13:03:50;1.97;;;0.90;;
19519;SDS011;9904;52.246;20.898;2022-07-29T13:09:06;2.73;;;0.80;;
19519;SDS011;9904;52.246;20.898;2022-07-29T13:11:36;2.30;;;0.80;;
19519;SDS011;9904;52.246;20.898;2022-07-29T13:14:13;7.03;;;1.80;;
19519;SDS011;9904;52.246;20.898;2022-07-29T13:19:38;1.17;;;0.60;;
19519;SDS011;9904;52.246;20.898;2022-07-29T13:22:08;1.50;;;0.87;;
19519;SDS011;9904;52.246;20.898;2022-07-29T13:24:56;2.17;;;0.60;;
19519;SDS011;9904;52.246;20.898;2022-07-29T13:27:27;3.33;;;0.77;;
19519;SDS011;9904;52.246;20.898;2022-07-29T13:29:55;1.63;;;0.60;;
19519;SDS011;9904;52.246;20.898;2022-07-29T13:32:24;8.53;;;0.87;;
19519;SDS011;9904;52.246;20.898;2022-07-29T13:34:57;1.93;;;0.70;;
19519;SDS011;9904;52.246;20.898;2022-07-29T13:37:30;3.77;;;0.70;;
19519;SDS011;9904;52.246;20.898;2022-07-29T13:39:59;2.57;;;0.70;;
19519;SDS011;9904;52.246;20.898;2022-07-29T13:42:26;4.37;;;0.90;;
19519;SDS011;9904;52.246;20.898;2022-07-29T13:44:52;3.90;;;0.70;;
19519;SDS011;9904;52.246;20.898;2022-07-29T13:47:20;2.30;;;0.80;;
19519;SDS011;9904;52.246;20.898;2022-07-29T13:49:47;1.20;;;0.50;;
19519;SDS011;9904;52.246;20.898;2022-07-29T13:52:14;4.00;;;0.60;;
19519;SDS011;9904;52.246;20.898;2022-07-29T13:54:42;3.30;;;0.80;;
19519;SDS011;9904;52.246;20.898;2022-07-29T13:57:09;2.67;;;0.67;;
19519;SDS011;9904;52.246;20.898;2022-07-29T13:59:37;4.50;;;1.10;;
19519;SDS011;9904;52.246;20.898;2022-07-29T14:02:08;6.97;;;0.97;;
19519;SDS011;9904;52.246;20.898;2022-07-29T14:04:35;1.73;;;0.87;;
19519;SDS011;9904;52.246;20.898;2022-07-29T14:07:05;5.40;;;0.70;;
19519;SDS011;9904;52.246;20.898;2022-07-29T14:09:32;7.00;;;1.00;;
19519;SDS011;9904;52.246;20.898;2022-07-29T14:12:06;1.70;;;0.80;;
19519;SDS011;9904;52.246;20.898;2022-07-29T14:14:34;4.17;;;0.80;;
19519;SDS011;9904;52.246;20.898;2022-07-29T14:17:03;2.57;;;0.73;;
19519;SDS011;9904;52.246;20.898;2022-07-29T14:19:32;2.00;;;0.90;;
19519;SDS011;9904;52.246;20.898;2022-07-29T14:22:02;4.30;;;0.97;;
19519;SDS011;9904;52.246;20.898;2022-07-29T14:24:32;4.97;;;0.90;;
19519;SDS011;9904;52.246;20.898;2022-07-29T14:27:03;4.83;;;0.70;;
19519;SDS011;9904;52.246;20.898;2022-07-29T14:29:30;1.47;;;0.77;;
19519;SDS011;9904;52.246;20.898;2022-07-29T14:32:06;3.97;;;0.73;;
19519;SDS011;9904;52.246;20.898;2022-07-29T14:34:37;3.23;;;0.80;;
19519;SDS011;9904;52.246;20.898;2022-07-29T14:37:04;13.70;;;0.90;;
19519;SDS011;9904;52.246;20.898;2022-07-29T14:39:32;5.57;;;0.90;;
19519;SDS011;9904;52.246;20.898;2022-07-29T14:42:04;3.20;;;0.93;;
19519;SDS011;9904;52.246;20.898;2022-07-29T14:44:31;11.53;;;1.27;;
19519;SDS011;9904;52.246;20.898;2022-07-29T14:46:58;3.47;;;0.80;;
19519;SDS011;9904;52.246;20.898;2022-07-29T14:49:32;3.23;;;0.47;;
19519;SDS011;9904;52.246;20.898;2022-07-29T14:51:59;2.10;;;0.73;;
19519;SDS011;9904;52.246;20.898;2022-07-29T14:54:26;3.00;;;0.83;;
19519;SDS011;9904;52.246;20.898;2022-07-29T14:56:53;2.37;;;0.90;;
19519;SDS011;9904;52.246;20.898;2022-07-29T14:59:23;3.47;;;0.80;;
19519;SDS011;9904;52.246;20.898;2022-07-29T15:01:50;2.40;;;0.80;;
19519;SDS011;9904;52.246;20.898;2022-07-29T15:04:17;2.73;;;0.70;;
19519;SDS011;9904;52.246;20.898;2022-07-29T15:06:43;10.93;;;0.80;;
19519;SDS011;9904;52.246;20.898;2022-07-29T15:09:10;3.57;;;1.00;;
19519;SDS011;9904;52.246;20.898;2022-07-29T15:11:37;4.67;;;0.83;;
19519;SDS011;9904;52.246;20.898;2022-07-29T15:14:04;3.83;;;0.63;;
19519;SDS011;9904;52.246;20.898;2022-07-29T15:16:32;2.40;;;0.80;;
19519;SDS011;9904;52.246;20.898;2022-07-29T15:19:00;2.27;;;0.90;;
19519;SDS011;9904;52.246;20.898;2022-07-29T15:21:27;1.20;;;0.70;;
19519;SDS011;9904;52.246;20.898;2022-07-29T15:23:53;4.77;;;1.10;;
19519;SDS011;9904;52.246;20.898;2022-07-29T15:26:20;2.07;;;0.77;;
19519;SDS011;9904;52.246;20.898;2022-07-29T15:28:47;2.10;;;0.87;;
19519;SDS011;9904;52.246;20.898;2022-07-29T15:31:14;4.10;;;1.03;;
19519;SDS011;9904;52.246;20.898;2022-07-29T15:33:41;4.87;;;1.07;;
19519;SDS011;9904;52.246;20.898;2022-07-29T15:36:07;9.97;;;2.40;;
19519;SDS011;9904;52.246;20.898;2022-07-29T15:38:34;5.23;;;1.60;;
19519;SDS011;9904;52.246;20.898;2022-07-29T15:41:07;10.87;;;1.73;;
19519;SDS011;9904;52.246;20.898;2022-07-29T15:43:34;3.03;;;1.40;;
19519;SDS011;9904;52.246;20.898;2022-07-29T15:46:03;4.03;;;1.30;;
19519;SDS011;9904;52.246;20.898;2022-07-29T15:48:49;2.87;;;0.80;;